Time;durP1;ratioP1;P1;durP2;ratioP2;P2;SDS_P1;SDS_P2;PMS_P1;PMS_P2;Temp;Humidity;BMP_temperature;BMP_pressure;BME280_temperature;BME280_humidity;BME280_pressure;Samples;Min_cycle;Max_cycle;Signal;HPM_P1;HPM_P2
2024/02/02 00:00:41;;;;;;;19.92;4.70;;;4.90;99.90;;;;;;5022424;28;20045;-62
2024/02/02 00:03:08;;;;;;;24.15;5.80;;;4.90;99.90;;;;;;5021533;28;20049;-63
2024/02/02 00:05:35;;;;;;;21.48;4.43;;;4.80;99.90;;;;;;5021313;28;20064;-62
2024/02/02 00:08:01;;;;;;;17.33;4.68;;;4.80;99.90;;;;;;5024104;28;20037;-63
2024/02/02 00:10:28;;;;;;;20.83;5.15;;;4.80;99.90;;;;;;5021719;28;20473;-63
2024/02/02 00:12:55;;;;;;;21.27;6.80;;;4.80;99.90;;;;;;5022658;28;20544;-62
2024/02/02 00:15:23;;;;;;;22.40;5.03;;;4.80;99.90;;;;;;5022342;28;20129;-62
2024/02/02 00:17:50;;;;;;;15.27;4.38;;;4.80;99.90;;;;;;5016726;28;20072;-61
2024/02/02 00:20:17;;;;;;;22.25;4.63;;;4.80;99.90;;;;;;5022448;28;20368;-62
2024/02/02 00:22:44;;;;;;;16.73;4.78;;;4.80;99.90;;;;;;5018462;28;20406;-61
2024/02/02 00:25:10;;;;;;;16.83;4.93;;;4.80;99.90;;;;;;5018447;28;20040;-61
2024/02/02 00:27:37;;;;;;;20.33;4.60;;;4.80;99.90;;;;;;5021477;28;20389;-61
2024/02/02 00:30:04;;;;;;;17.77;4.97;;;4.80;99.90;;;;;;5024608;28;20375;-61
2024/02/02 00:32:31;;;;;;;16.05;4.55;;;4.80;99.90;;;;;;5021400;28;20116;-61
2024/02/02 00:34:58;;;;;;;19.58;5.65;;;4.80;99.90;;;;;;5021938;28;20116;-62
2024/02/02 00:37:25;;;;;;;18.77;4.00;;;4.80;99.90;;;;;;5029741;28;20047;-61
2024/02/02 00:39:51;;;;;;;19.08;4.40;;;4.80;99.90;;;;;;5033453;28;20045;-61
2024/02/02 00:42:18;;;;;;;22.75;4.97;;;4.80;99.90;;;;;;5033399;28;20048;-62
2024/02/02 00:44:45;;;;;;;28.25;5.57;;;4.80;99.90;;;;;;5035339;28;20076;-62
2024/02/02 00:47:12;;;;;;;20.05;4.68;;;4.80;99.90;;;;;;5042974;28;20084;-62
2024/02/02 00:49:40;;;;;;;21.50;4.65;;;4.80;99.90;;;;;;5038231;28;20040;-63
2024/02/02 00:52:07;;;;;;;19.15;4.05;;;4.80;99.90;;;;;;5050986;28;20045;-62
2024/02/02 00:54:34;;;;;;;20.48;4.75;;;4.80;99.90;;;;;;5052190;28;20045;-63
2024/02/02 00:57:00;;;;;;;15.77;4.10;;;4.80;99.90;;;;;;5053101;28;20166;-63
2024/02/02 00:59:27;;;;;;;15.65;4.03;;;4.80;99.90;;;;;;5053466;28;20048;-63
2024/02/02 01:01:54;;;;;;;21.73;4.68;;;4.80;99.90;;;;;;5052247;28;20064;-63
2024/02/02 01:04:21;;;;;;;21.92;4.50;;;4.80;99.90;;;;;;5056402;28;20037;-63
2024/02/02 01:06:48;;;;;;;16.92;4.25;;;4.80;99.90;;;;;;5046510;28;20037;-63
2024/02/02 01:09:15;;;;;;;27.27;4.72;;;4.80;99.90;;;;;;5037089;28;20042;-63
2024/02/02 01:11:43;;;;;;;18.13;4.13;;;4.80;99.90;;;;;;5037537;28;20073;-63
2024/02/02 01:14:09;;;;;;;23.48;5.13;;;4.80;99.90;;;;;;5036782;28;20053;-63
2024/02/02 01:16:36;;;;;;;21.25;4.20;;;4.80;99.90;;;;;;5052033;28;20033;-62
2024/02/02 01:19:03;;;;;;;20.88;4.82;;;4.80;99.90;;;;;;5056709;28;20045;-62
2024/02/02 01:21:31;;;;;;;14.38;4.38;;;4.80;99.90;;;;;;5056675;28;20045;-62
2024/02/02 01:23:59;;;;;;;14.82;4.50;;;4.80;99.90;;;;;;5056787;28;20123;-63
2024/02/02 01:26:25;;;;;;;16.17;4.40;;;4.80;99.90;;;;;;5056982;28;20037;-62
2024/02/02 01:28:52;;;;;;;16.20;4.65;;;4.80;99.90;;;;;;5057053;28;20059;-62
2024/02/02 01:31:19;;;;;;;18.80;3.88;;;4.80;99.90;;;;;;5057034;28;20064;-62
2024/02/02 01:33:46;;;;;;;22.88;5.03;;;4.70;99.90;;;;;;5055265;28;20064;-62
2024/02/02 01:36:12;;;;;;;20.45;4.93;;;4.80;99.90;;;;;;5055614;28;20502;-62
2024/02/02 01:38:39;;;;;;;16.80;4.43;;;4.80;99.90;;;;;;5055518;28;20502;-61
2024/02/02 01:41:06;;;;;;;16.27;4.32;;;4.80;99.90;;;;;;5050555;28;20048;-61
2024/02/02 01:43:33;;;;;;;18.63;4.28;;;4.80;99.90;;;;;;5056432;28;20041;-62
2024/02/02 01:45:59;;;;;;;18.58;3.67;;;4.80;99.90;;;;;;5056617;28;20056;-62
2024/02/02 01:48:26;;;;;;;17.60;4.47;;;4.80;99.90;;;;;;5056998;28;20095;-62
2024/02/02 01:50:53;;;;;;;18.63;4.15;;;4.80;99.90;;;;;;5056425;28;20073;-62
2024/02/02 01:53:20;;;;;;;24.05;4.72;;;4.80;99.90;;;;;;5056766;28;20052;-62
2024/02/02 01:55:47;;;;;;;18.92;4.15;;;4.80;99.90;;;;;;5056009;28;20041;-62
2024/02/02 01:58:14;;;;;;;25.35;5.85;;;4.80;99.90;;;;;;5054844;28;20390;-62
2024/02/02 02:00:41;;;;;;;20.73;4.05;;;4.80;99.90;;;;;;5056410;28;20041;-62
2024/02/02 02:03:08;;;;;;;20.02;4.53;;;4.80;99.90;;;;;;5056516;28;20393;-62
2024/02/02 02:05:35;;;;;;;14.75;3.60;;;4.90;99.90;;;;;;5055856;28;20459;-62
2024/02/02 02:08:02;;;;;;;22.15;4.95;;;4.90;99.90;;;;;;5054639;28;20045;-62
2024/02/02 02:10:29;;;;;;;17.33;3.58;;;4.90;99.90;;;;;;5056423;28;20033;-62
2024/02/02 02:12:56;;;;;;;20.52;3.78;;;4.90;99.90;;;;;;5055823;28;20041;-62
2024/02/02 02:15:24;;;;;;;22.10;4.13;;;4.90;99.90;;;;;;5054506;28;20364;-62
2024/02/02 02:17:51;;;;;;;19.58;4.28;;;4.90;99.90;;;;;;5055763;28;20099;-62
2024/02/02 02:20:18;;;;;;;19.80;3.95;;;5.00;99.90;;;;;;5056037;28;20068;-62
2024/02/02 02:22:45;;;;;;;20.65;4.25;;;5.00;99.90;;;;;;5056194;28;20155;-62
2024/02/02 02:25:12;;;;;;;17.80;3.83;;;5.00;99.90;;;;;;5055911;28;20045;-62
2024/02/02 02:27:39;;;;;;;14.95;3.75;;;5.00;99.90;;;;;;5055921;28;20083;-62
2024/02/02 02:30:06;;;;;;;18.45;4.20;;;5.00;99.90;;;;;;5055832;28;20478;-62
2024/02/02 02:32:33;;;;;;;20.05;4.20;;;5.00;99.90;;;;;;5055531;28;20122;-62
2024/02/02 02:35:00;;;;;;;18.63;3.88;;;5.10;99.90;;;;;;5055395;28;20424;-62
2024/02/02 02:37:26;;;;;;;22.13;3.47;;;5.10;99.90;;;;;;5055873;28;20413;-61
2024/02/02 02:39:53;;;;;;;21.52;4.03;;;5.10;99.90;;;;;;5055413;28;20052;-62
2024/02/02 02:42:20;;;;;;;23.88;4.40;;;5.20;99.90;;;;;;5055696;28;20049;-62
2024/02/02 02:44:47;;;;;;;16.33;3.38;;;5.20;99.90;;;;;;5054082;28;20562;-62
2024/02/02 02:47:13;;;;;;;26.73;4.28;;;5.30;99.90;;;;;;5055308;28;20492;-62
2024/02/02 02:49:40;;;;;;;21.58;4.95;;;5.40;99.90;;;;;;5055283;28;20049;-62
2024/02/02 02:52:07;;;;;;;16.67;3.92;;;5.50;99.90;;;;;;5055419;28;20041;-62
2024/02/02 02:54:34;;;;;;;17.80;3.80;;;5.50;99.90;;;;;;5055205;28;20052;-63
2024/02/02 02:57:01;;;;;;;15.55;3.88;;;5.60;99.90;;;;;;5055120;28;20049;-63
2024/02/02 02:59:30;;;;;;;11.82;3.45;;;5.60;99.90;;;;;;5055112;28;20045;-63
2024/02/02 03:01:57;;;;;;;12.98;3.65;;;5.70;99.90;;;;;;5053639;28;20406;-63
2024/02/02 03:04:23;;;;;;;11.93;3.78;;;5.70;99.90;;;;;;5053728;28;20051;-62
2024/02/02 03:06:50;;;;;;;13.20;3.60;;;5.70;99.90;;;;;;5055134;28;20041;-62
2024/02/02 03:09:18;;;;;;;10.27;2.95;;;5.80;99.90;;;;;;5055129;28;20037;-63
2024/02/02 03:11:45;;;;;;;15.10;3.78;;;5.80;99.90;;;;;;5054981;28;20052;-63
2024/02/02 03:14:11;;;;;;;10.45;2.83;;;5.90;99.90;;;;;;5054434;28;20060;-63
2024/02/02 03:16:38;;;;;;;12.88;3.10;;;5.90;99.90;;;;;;5054652;28;20091;-63
2024/02/02 03:19:05;;;;;;;13.93;2.85;;;5.90;99.90;;;;;;5054693;28;20057;-64
2024/02/02 03:21:34;;;;;;;13.73;3.30;;;5.90;99.90;;;;;;5054234;28;20049;-62
2024/02/02 03:24:01;;;;;;;16.95;3.97;;;6.00;99.90;;;;;;5054257;28;20497;-63
2024/02/02 03:26:28;;;;;;;15.38;3.03;;;6.00;99.90;;;;;;5054012;28;20538;-63
2024/02/02 03:28:54;;;;;;;8.77;2.60;;;6.10;99.90;;;;;;5054921;28;20474;-63
2024/02/02 03:31:21;;;;;;;12.07;3.00;;;6.10;99.90;;;;;;5054449;28;20041;-63
2024/02/02 03:33:48;;;;;;;13.25;3.85;;;6.10;99.90;;;;;;5054420;28;20041;-64
2024/02/02 03:36:15;;;;;;;11.15;2.70;;;6.10;99.90;;;;;;5054718;28;20120;-63
2024/02/02 03:38:42;;;;;;;9.65;2.55;;;6.20;99.90;;;;;;5054265;28;20037;-63
2024/02/02 03:41:09;;;;;;;14.18;3.35;;;6.20;99.90;;;;;;5054481;28;20065;-62
2024/02/02 03:43:36;;;;;;;11.70;2.83;;;6.20;99.90;;;;;;5054205;28;20048;-62
2024/02/02 03:46:03;;;;;;;15.43;2.97;;;6.20;99.90;;;;;;5054339;28;20048;-63
2024/02/02 03:48:29;;;;;;;8.38;2.70;;;6.30;99.90;;;;;;5054263;28;20505;-63
2024/02/02 03:50:56;;;;;;;10.73;2.90;;;6.30;99.90;;;;;;5054012;28;20056;-63
2024/02/02 03:53:23;;;;;;;13.05;2.83;;;6.30;99.90;;;;;;5054155;28;20037;-63
2024/02/02 03:55:50;;;;;;;10.38;3.05;;;6.30;99.90;;;;;;5053823;28;20049;-63
2024/02/02 03:58:17;;;;;;;9.85;2.80;;;6.40;99.90;;;;;;5053578;28;20401;-62
2024/02/02 04:00:44;;;;;;;14.27;2.58;;;6.40;99.90;;;;;;5054118;28;20141;-62
2024/02/02 04:03:11;;;;;;;7.97;2.33;;;6.40;99.90;;;;;;5054057;28;20052;-63
2024/02/02 04:05:39;;;;;;;12.98;2.78;;;6.40;99.90;;;;;;5053970;28;20075;-63
2024/02/02 04:08:06;;;;;;;10.55;2.90;;;6.40;99.90;;;;;;5054026;28;20108;-63
2024/02/02 04:10:33;;;;;;;9.15;2.22;;;6.40;99.90;;;;;;5054065;28;20033;-62
2024/02/02 04:13:02;;;;;;;8.75;2.10;;;6.50;99.90;;;;;;5053431;28;20068;-63
2024/02/02 04:15:29;;;;;;;11.95;2.38;;;6.50;99.90;;;;;;5053219;28;20049;-63
2024/02/02 04:17:59;;;;;;;8.88;2.53;;;6.50;99.90;;;;;;5053905;28;20500;-62
2024/02/02 04:20:26;;;;;;;11.43;2.28;;;6.50;99.90;;;;;;5053768;28;20090;-62
2024/02/02 04:22:53;;;;;;;7.43;2.05;;;6.50;99.90;;;;;;5053633;28;20110;-61
2024/02/02 04:25:20;;;;;;;10.88;2.63;;;6.60;99.90;;;;;;5053343;28;20045;-61
2024/02/02 04:27:47;;;;;;;8.68;1.65;;;6.60;99.90;;;;;;5053915;28;20488;-62
2024/02/02 04:30:13;;;;;;;7.38;2.00;;;6.60;99.90;;;;;;5053796;28;20045;-62
2024/02/02 04:32:41;;;;;;;9.60;1.80;;;6.70;99.90;;;;;;5053602;28;20469;-62
2024/02/02 04:35:07;;;;;;;9.68;1.90;;;6.70;99.90;;;;;;5053476;28;20041;-62
2024/02/02 04:37:34;;;;;;;7.18;1.90;;;6.70;99.90;;;;;;5052482;28;20122;-61
2024/02/02 04:40:01;;;;;;;5.78;1.92;;;6.80;99.90;;;;;;5052310;28;20068;-62
2024/02/02 04:42:28;;;;;;;7.40;1.83;;;6.80;99.90;;;;;;5053527;28;20045;-62
2024/02/02 04:44:55;;;;;;;8.50;1.70;;;6.80;99.90;;;;;;5053415;28;20072;-62
2024/02/02 04:47:22;;;;;;;6.28;1.60;;;6.80;99.90;;;;;;5053362;28;20048;-61
2024/02/02 04:49:49;;;;;;;10.65;1.73;;;6.90;99.90;;;;;;5053628;28;20045;-62
2024/02/02 04:52:16;;;;;;;7.78;1.60;;;6.90;99.90;;;;;;5053163;28;20071;-62
2024/02/02 04:54:42;;;;;;;9.60;1.70;;;6.90;99.90;;;;;;5053141;28;20052;-62
2024/02/02 04:57:10;;;;;;;5.25;1.50;;;6.90;99.90;;;;;;5053354;28;20119;-62
2024/02/02 04:59:37;;;;;;;6.50;1.50;;;6.90;99.90;;;;;;5053444;28;20475;-62
2024/02/02 05:02:04;;;;;;;5.72;1.85;;;7.00;99.90;;;;;;5053049;28;20053;-62
2024/02/02 05:04:32;;;;;;;5.60;1.50;;;7.00;99.90;;;;;;5052918;28;20041;-62
2024/02/02 05:06:59;;;;;;;6.85;1.50;;;7.00;99.90;;;;;;5053285;28;20037;-62
2024/02/02 05:09:26;;;;;;;4.80;1.80;;;7.10;99.90;;;;;;5053136;28;20137;-62
2024/02/02 05:11:53;;;;;;;6.00;1.50;;;7.00;99.90;;;;;;5052988;28;20041;-62
2024/02/02 05:14:20;;;;;;;5.18;1.38;;;7.10;99.90;;;;;;5052826;28;20453;-62
2024/02/02 05:16:46;;;;;;;4.63;1.40;;;7.10;99.90;;;;;;5053256;28;20137;-62
2024/02/02 05:19:13;;;;;;;5.45;1.42;;;7.10;99.90;;;;;;5052803;28;20037;-62
2024/02/02 05:21:40;;;;;;;5.05;1.63;;;7.10;99.90;;;;;;5051988;28;20096;-62
2024/02/02 05:24:07;;;;;;;6.20;1.80;;;7.10;99.90;;;;;;5053253;28;20061;-62
2024/02/02 05:26:54;;;;;;;3.60;1.42;;;7.20;99.90;;;;;;5053048;28;20036;-62
2024/02/02 05:29:20;;;;;;;4.20;1.50;;;7.20;99.90;;;;;;5053289;28;20120;-62
2024/02/02 05:31:47;;;;;;;5.65;1.60;;;7.20;99.90;;;;;;5053364;28;20051;-62
2024/02/02 05:34:14;;;;;;;4.10;1.67;;;7.20;99.90;;;;;;5052788;28;20043;-64
2024/02/02 05:36:41;;;;;;;6.63;1.52;;;7.20;99.90;;;;;;5052911;28;20467;-64
2024/02/02 05:39:09;;;;;;;3.55;1.40;;;7.30;99.90;;;;;;5051583;28;20041;-63
2024/02/02 05:41:36;;;;;;;7.93;1.70;;;7.30;99.90;;;;;;5052831;28;20513;-63
2024/02/02 05:44:03;;;;;;;4.78;1.70;;;7.30;99.90;;;;;;5052756;28;20052;-63
2024/02/02 05:46:29;;;;;;;4.45;1.60;;;7.30;99.90;;;;;;5053034;28;20471;-63
2024/02/02 05:48:56;;;;;;;6.75;1.70;;;7.30;99.90;;;;;;5053956;28;20041;-63
2024/02/02 05:51:23;;;;;;;5.97;1.85;;;7.30;99.90;;;;;;5056651;28;20099;-62
2024/02/02 05:53:50;;;;;;;5.07;1.90;;;7.40;99.90;;;;;;5056389;28;20037;-63
2024/02/02 05:56:17;;;;;;;4.78;1.63;;;7.40;99.90;;;;;;5056018;28;20068;-63
2024/02/02 05:58:44;;;;;;;5.43;1.90;;;7.40;99.90;;;;;;5055006;28;20051;-62
2024/02/02 06:01:11;;;;;;;5.30;2.22;;;7.40;99.90;;;;;;5055254;28;20045;-62
2024/02/02 06:03:38;;;;;;;5.45;1.80;;;7.40;99.90;;;;;;5056086;28;20068;-62
2024/02/02 06:06:05;;;;;;;3.15;1.40;;;7.50;99.90;;;;;;5056178;28;20460;-62
2024/02/02 06:08:32;;;;;;;4.05;1.73;;;7.50;99.90;;;;;;5056301;28;20087;-61
2024/02/02 06:10:58;;;;;;;3.78;1.83;;;7.50;99.90;;;;;;5055798;28;20159;-63
2024/02/02 06:13:25;;;;;;;4.43;1.88;;;7.50;99.90;;;;;;5056077;28;20370;-63
2024/02/02 06:15:52;;;;;;;3.85;1.65;;;7.50;99.90;;;;;;5055892;28;20040;-63
2024/02/02 06:18:19;;;;;;;4.03;1.70;;;7.50;99.90;;;;;;5055847;28;20059;-62
2024/02/02 06:20:46;;;;;;;3.83;1.45;;;7.50;99.90;;;;;;5055985;28;20047;-62
2024/02/02 06:23:13;;;;;;;4.57;1.60;;;7.60;99.90;;;;;;5055680;28;20040;-62
2024/02/02 06:25:40;;;;;;;2.83;1.33;;;7.60;99.90;;;;;;5055887;28;20049;-62
2024/02/02 06:28:08;;;;;;;4.07;1.50;;;7.60;99.90;;;;;;5056088;28;20033;-63
2024/02/02 06:30:35;;;;;;;4.88;1.70;;;7.60;99.90;;;;;;5055057;28;20444;-63
2024/02/02 06:33:01;;;;;;;2.80;1.50;;;7.60;99.90;;;;;;5054553;28;20080;-63
2024/02/02 06:35:28;;;;;;;4.50;1.50;;;7.70;99.90;;;;;;5055537;28;20119;-63
2024/02/02 06:37:55;;;;;;;5.38;1.52;;;7.60;99.90;;;;;;5055940;28;20091;-64
2024/02/02 06:40:22;;;;;;;3.60;1.40;;;7.70;99.90;;;;;;5055609;28;20048;-62
2024/02/02 06:42:49;;;;;;;3.33;1.42;;;7.70;99.90;;;;;;5055514;28;20041;-64
2024/02/02 06:45:15;;;;;;;3.65;1.35;;;7.70;99.90;;;;;;5055544;28;20037;-64
2024/02/02 06:47:42;;;;;;;3.60;1.60;;;7.70;99.90;;;;;;5055210;28;20505;-64
2024/02/02 06:50:09;;;;;;;3.67;1.60;;;7.70;99.90;;;;;;5055107;28;20091;-63
2024/02/02 06:52:36;;;;;;;4.55;1.90;;;7.80;99.90;;;;;;5055169;28;20371;-65
2024/02/02 06:55:03;;;;;;;3.38;1.65;;;7.70;99.90;;;;;;5055078;28;20075;-63
2024/02/02 06:57:31;;;;;;;3.22;1.58;;;7.70;99.90;;;;;;5055032;28;20471;-63
2024/02/02 06:59:59;;;;;;;2.78;1.80;;;7.80;99.90;;;;;;5054958;28;20041;-64
2024/02/02 07:02:26;;;;;;;4.70;2.15;;;7.80;99.90;;;;;;5054501;28;20044;-63
2024/02/02 07:04:54;;;;;;;4.28;2.00;;;7.80;99.90;;;;;;5053734;28;20044;-63
2024/02/02 07:07:21;;;;;;;3.67;2.10;;;7.80;99.90;;;;;;5055091;28;20037;-62
2024/02/02 07:09:47;;;;;;;4.30;2.00;;;7.80;99.90;;;;;;5054920;28;20367;-62
2024/02/02 07:12:14;;;;;;;3.75;1.80;;;7.80;99.90;;;;;;5054767;28;20119;-62
2024/02/02 07:14:42;;;;;;;3.05;1.80;;;7.80;99.90;;;;;;5053622;28;20490;-62
2024/02/02 07:17:09;;;;;;;3.38;1.75;;;7.90;99.90;;;;;;5055112;28;20112;-63
2024/02/02 07:19:36;;;;;;;4.15;2.58;;;7.90;99.90;;;;;;5054896;28;20124;-63
2024/02/02 07:22:03;;;;;;;4.20;2.28;;;7.90;99.90;;;;;;5055089;28;20075;-62
2024/02/02 07:24:29;;;;;;;3.33;1.92;;;7.90;99.90;;;;;;5054775;28;20095;-62
2024/02/02 07:26:56;;;;;;;5.57;2.17;;;7.90;99.90;;;;;;5054426;28;20193;-62
2024/02/02 07:29:23;;;;;;;2.95;2.13;;;8.00;99.90;;;;;;5054712;28;20045;-62
2024/02/02 07:31:50;;;;;;;5.03;2.10;;;8.00;99.90;;;;;;5054430;28;20041;-62
2024/02/02 07:34:17;;;;;;;3.95;2.10;;;8.10;99.90;;;;;;5054394;28;20106;-62
2024/02/02 07:36:44;;;;;;;3.58;1.80;;;8.00;99.90;;;;;;5054444;28;20525;-62
2024/02/02 07:39:11;;;;;;;4.32;1.83;;;8.10;99.90;;;;;;5054642;28;20387;-62
2024/02/02 07:41:38;;;;;;;3.85;2.10;;;8.10;99.90;;;;;;5054335;28;20486;-62
2024/02/02 07:44:04;;;;;;;3.80;1.90;;;8.10;99.90;;;;;;5054296;28;20127;-62
2024/02/02 07:46:31;;;;;;;5.93;2.35;;;8.10;99.90;;;;;;5054073;28;20033;-63
2024/02/02 07:48:58;;;;;;;5.03;2.40;;;8.10;99.90;;;;;;5053915;28;20064;-62
2024/02/02 07:51:26;;;;;;;3.63;2.55;;;8.20;99.90;;;;;;5054436;28;20041;-62
2024/02/02 07:53:54;;;;;;;4.40;2.13;;;8.20;99.90;;;;;;5054159;28;20459;-62
2024/02/02 07:56:21;;;;;;;5.55;2.30;;;8.20;99.90;;;;;;5053217;28;20045;-63
2024/02/02 07:58:49;;;;;;;3.80;2.00;;;8.20;99.90;;;;;;5053916;28;20120;-63
2024/02/02 08:01:16;;;;;;;3.88;2.20;;;8.20;99.90;;;;;;5054009;28;20079;-63
2024/02/02 08:03:43;;;;;;;3.33;2.20;;;8.20;99.90;;;;;;5054191;28;20048;-63
2024/02/02 08:06:10;;;;;;;5.05;2.38;;;8.30;99.90;;;;;;5052843;28;20069;-62
2024/02/02 08:08:37;;;;;;;3.03;1.90;;;8.30;99.90;;;;;;5053682;28;20115;-63
2024/02/02 08:11:04;;;;;;;3.47;1.95;;;8.30;99.90;;;;;;5052444;28;20434;-62
2024/02/02 08:13:31;;;;;;;2.78;1.90;;;8.30;99.90;;;;;;5052717;28;20057;-63
2024/02/02 08:15:58;;;;;;;2.85;2.10;;;8.30;99.90;;;;;;5054195;28;20049;-63
2024/02/02 08:18:25;;;;;;;2.40;1.75;;;8.40;99.90;;;;;;5053649;28;20122;-65
2024/02/02 08:20:52;;;;;;;3.92;2.03;;;8.40;99.90;;;;;;5053947;28;20072;-64
2024/02/02 08:23:19;;;;;;;3.20;1.70;;;8.40;99.90;;;;;;5053791;28;20049;-64
2024/02/02 08:25:46;;;;;;;3.80;1.90;;;8.50;99.90;;;;;;5051757;28;20425;-65
2024/02/02 08:28:13;;;;;;;3.17;1.80;;;8.50;99.90;;;;;;5052002;28;20032;-63
2024/02/02 08:30:39;;;;;;;3.53;1.83;;;8.60;99.90;;;;;;5053620;28;20041;-62
2024/02/02 08:33:06;;;;;;;4.03;1.80;;;8.60;99.90;;;;;;5053408;28;20494;-62
2024/02/02 08:35:33;;;;;;;3.17;1.80;;;8.60;99.90;;;;;;5053379;28;20518;-62
2024/02/02 08:38:00;;;;;;;5.05;1.83;;;8.70;99.90;;;;;;5053882;28;20069;-63
2024/02/02 08:40:27;;;;;;;4.30;2.00;;;8.70;99.90;;;;;;5053319;28;20049;-62
2024/02/02 08:42:54;;;;;;;4.35;1.95;;;8.70;99.90;;;;;;5053296;28;20533;-62
2024/02/02 08:45:21;;;;;;;3.15;1.98;;;8.80;99.90;;;;;;5053087;28;20056;-63
2024/02/02 08:47:48;;;;;;;4.25;2.08;;;8.80;99.90;;;;;;5053011;28;20069;-63
2024/02/02 08:50:15;;;;;;;3.03;1.85;;;8.80;99.90;;;;;;5053340;28;20033;-64
2024/02/02 08:52:43;;;;;;;3.28;1.98;;;8.90;99.90;;;;;;5053315;28;20065;-64
2024/02/02 08:55:10;;;;;;;3.60;1.95;;;8.90;99.90;;;;;;5052896;28;20037;-64
2024/02/02 08:57:37;;;;;;;3.03;1.77;;;9.00;99.90;;;;;;5035598;28;20056;-62
2024/02/02 09:00:05;;;;;;;4.00;2.08;;;9.00;99.90;;;;;;5047681;28;20041;-63
2024/02/02 09:02:32;;;;;;;3.60;2.10;;;9.10;99.90;;;;;;5043247;28;20421;-64
2024/02/02 09:04:58;;;;;;;3.72;2.05;;;9.10;99.90;;;;;;5043592;28;20087;-63
2024/02/02 09:07:25;;;;;;;2.95;1.92;;;9.10;99.90;;;;;;5048689;28;20463;-63
2024/02/02 09:09:52;;;;;;;3.30;1.83;;;9.10;99.90;;;;;;5053182;28;20427;-63
2024/02/02 09:12:19;;;;;;;2.85;1.65;;;9.20;99.90;;;;;;5052895;28;20065;-63
2024/02/02 09:14:46;;;;;;;2.88;1.65;;;9.20;99.90;;;;;;5052907;28;20045;-62
2024/02/02 09:17:13;;;;;;;3.10;2.00;;;9.30;99.90;;;;;;5053021;28;20041;-62
2024/02/02 09:19:43;;;;;;;3.28;2.00;;;9.30;99.90;;;;;;5053024;28;20157;-62
2024/02/02 09:22:11;;;;;;;2.95;1.60;;;9.30;99.90;;;;;;5052973;28;20119;-63
2024/02/02 09:24:39;;;;;;;3.08;1.58;;;9.40;99.90;;;;;;5055476;28;20397;-63
2024/02/02 09:27:06;;;;;;;2.55;1.67;;;9.40;99.90;;;;;;5056938;28;20041;-64
2024/02/02 09:29:33;;;;;;;3.15;1.58;;;9.50;99.90;;;;;;5057047;28;20055;-64
2024/02/02 09:32:00;;;;;;;2.85;1.42;;;9.50;99.90;;;;;;5055054;28;20052;-64
2024/02/02 09:34:27;;;;;;;2.10;1.70;;;9.50;99.90;;;;;;5055002;28;20382;-62
2024/02/02 09:36:54;;;;;;;2.65;1.55;;;9.50;99.90;;;;;;5056452;28;20090;-64
2024/02/02 09:39:21;;;;;;;3.25;1.50;;;9.60;99.90;;;;;;5056299;28;20041;-64
2024/02/02 09:41:48;;;;;;;2.60;1.70;;;9.60;99.90;;;;;;5055942;28;20045;-64
2024/02/02 09:44:14;;;;;;;2.92;1.50;;;9.60;99.90;;;;;;5036690;28;20072;-64
2024/02/02 09:46:41;;;;;;;2.20;1.63;;;9.60;99.90;;;;;;5031651;28;20041;-63
2024/02/02 09:49:08;;;;;;;4.03;1.60;;;9.60;99.90;;;;;;5033608;28;20046;-63
2024/02/02 09:51:35;;;;;;;3.95;1.58;;;9.60;99.90;;;;;;5035785;28;20516;-63
2024/02/02 09:54:03;;;;;;;2.97;1.65;;;9.60;99.90;;;;;;5035365;28;20092;-64
2024/02/02 09:56:30;;;;;;;2.08;1.33;;;9.70;99.90;;;;;;5034689;28;20042;-62
2024/02/02 09:58:57;;;;;;;2.90;1.50;;;9.70;99.90;;;;;;5035696;28;20517;-64
2024/02/02 10:01:25;;;;;;;3.22;1.50;;;9.70;99.90;;;;;;5035018;28;20391;-63
2024/02/02 10:03:52;;;;;;;2.80;1.52;;;9.80;99.90;;;;;;5035484;28;20068;-63
2024/02/02 10:06:19;;;;;;;2.60;1.40;;;9.80;99.90;;;;;;5035494;28;20029;-61
2024/02/02 10:08:46;;;;;;;1.67;1.30;;;9.80;99.90;;;;;;5034898;28;20120;-62
2024/02/02 10:11:13;;;;;;;2.83;1.70;;;9.80;99.90;;;;;;5035575;28;20068;-62
2024/02/02 10:13:40;;;;;;;2.20;1.48;;;9.90;99.90;;;;;;5035363;28;20127;-62
2024/02/02 10:16:10;;;;;;;2.28;1.40;;;9.90;99.90;;;;;;5035595;28;20068;-62
2024/02/02 10:18:37;;;;;;;2.40;1.63;;;9.90;99.90;;;;;;5035474;28;20045;-61
2024/02/02 10:21:05;;;;;;;4.07;1.63;;;10.00;99.90;;;;;;5035558;28;20037;-62
2024/02/02 10:23:33;;;;;;;1.73;1.17;;;10.00;99.90;;;;;;5035277;28;20054;-62
2024/02/02 10:26:00;;;;;;;2.75;1.50;;;10.00;99.90;;;;;;5033897;28;20043;-63
2024/02/02 10:28:27;;;;;;;2.25;1.58;;;10.00;99.90;;;;;;5035388;28;20111;-63
2024/02/02 10:30:54;;;;;;;2.20;1.30;;;10.10;99.90;;;;;;5035050;28;20380;-63
2024/02/02 10:33:20;;;;;;;3.55;1.52;;;10.10;99.90;;;;;;5035260;28;20453;-63
2024/02/02 10:35:48;;;;;;;2.63;1.65;;;10.10;99.90;;;;;;5033967;28;20038;-63
2024/02/02 10:38:15;;;;;;;2.25;1.58;;;10.20;99.90;;;;;;5035111;28;20037;-63
2024/02/02 10:40:42;;;;;;;2.13;1.20;;;10.20;99.90;;;;;;5034960;28;20034;-63
2024/02/02 10:43:08;;;;;;;3.65;1.40;;;10.30;99.90;;;;;;5035063;28;20048;-64
2024/02/02 10:45:36;;;;;;;2.97;1.55;;;10.40;99.90;;;;;;5034901;28;20037;-64
2024/02/02 10:48:03;;;;;;;3.50;1.30;;;10.40;99.90;;;;;;5035111;28;20099;-65
2024/02/02 10:50:30;;;;;;;2.65;1.45;;;10.60;99.90;;;;;;5033791;28;20046;-64
2024/02/02 10:52:57;;;;;;;2.03;1.42;;;10.70;99.90;;;;;;5034766;28;20049;-64
2024/02/02 10:55:24;;;;;;;2.83;1.50;;;10.80;99.90;;;;;;5034560;28;20431;-63
2024/02/02 10:57:51;;;;;;;3.10;1.40;;;10.90;99.90;;;;;;5033284;28;20449;-64
2024/02/02 11:00:18;;;;;;;2.70;1.40;;;10.90;99.90;;;;;;5035257;28;20048;-61
2024/02/02 11:02:49;;;;;;;2.63;1.70;;;10.90;99.90;;;;;;5034560;28;20116;-61
2024/02/02 11:05:16;;;;;;;3.00;1.60;;;10.90;99.90;;;;;;5033921;28;20079;-65
2024/02/02 11:07:43;;;;;;;3.90;1.60;;;10.90;99.90;;;;;;5048394;28;20052;-65
2024/02/02 11:10:10;;;;;;;2.20;1.48;;;10.90;99.90;;;;;;5037480;28;20044;-62
2024/02/02 11:12:36;;;;;;;1.95;1.40;;;10.90;99.90;;;;;;5032987;28;20050;-62
2024/02/02 11:15:04;;;;;;;3.35;1.50;;;11.00;99.90;;;;;;5033982;28;20068;-64
2024/02/02 11:17:33;;;;;;;1.75;1.13;;;11.00;99.90;;;;;;5033998;28;20076;-65
2024/02/02 11:20:00;;;;;;;2.33;1.20;;;11.10;99.90;;;;;;5033935;28;20124;-65
2024/02/02 11:22:27;;;;;;;2.20;1.20;;;11.10;99.90;;;;;;5034095;28;20490;-65
2024/02/02 11:24:54;;;;;;;3.67;1.30;;;11.30;99.90;;;;;;5034348;28;20060;-62
2024/02/02 11:27:21;;;;;;;1.92;1.30;;;11.30;99.90;;;;;;5034117;28;20073;-62
2024/02/02 11:29:48;;;;;;;2.25;1.15;;;11.30;99.90;;;;;;5032798;28;20041;-64
2024/02/02 11:32:14;;;;;;;2.72;1.23;;;11.40;99.90;;;;;;5033304;28;20045;-64
2024/02/02 11:34:41;;;;;;;2.70;1.33;;;11.50;99.90;;;;;;5033837;28;20060;-63
2024/02/02 11:37:08;;;;;;;2.72;1.00;;;11.60;99.90;;;;;;5034094;28;20045;-64
2024/02/02 11:39:35;;;;;;;2.33;1.10;;;11.70;99.90;;;;;;5034046;28;20048;-63
2024/02/02 11:42:03;;;;;;;3.42;1.08;;;11.70;99.90;;;;;;5033736;28;20045;-62
2024/02/02 11:44:30;;;;;;;3.17;1.63;;;11.70;99.90;;;;;;5033688;28;20501;-62
2024/02/02 11:46:57;;;;;;;2.35;0.98;;;11.80;99.90;;;;;;5033590;28;20044;-61
2024/02/02 11:49:24;;;;;;;2.55;1.00;;;11.80;99.90;;;;;;5033884;28;20060;-63
2024/02/02 11:51:51;;;;;;;1.73;0.95;;;11.80;99.90;;;;;;5033168;28;20040;-62
2024/02/02 11:54:18;;;;;;;1.83;1.05;;;11.80;99.90;;;;;;5032767;28;20053;-62
2024/02/02 11:56:45;;;;;;;1.92;0.90;;;11.80;99.90;;;;;;5033798;28;20049;-64
2024/02/02 11:59:12;;;;;;;1.90;0.80;;;11.90;99.90;;;;;;5031575;28;20041;-64
2024/02/02 12:01:39;;;;;;;1.95;0.90;;;11.80;99.90;;;;;;5033488;28;20056;-62
2024/02/02 12:04:06;;;;;;;1.75;0.90;;;11.90;99.90;;;;;;5033347;28;20390;-63
2024/02/02 12:06:33;;;;;;;2.72;1.10;;;11.80;99.90;;;;;;5033388;28;20045;-62
2024/02/02 12:09:00;;;;;;;1.60;0.80;;;11.80;99.90;;;;;;5033692;28;20048;-61
2024/02/02 12:11:26;;;;;;;1.77;1.00;;;11.80;99.90;;;;;;5033676;28;20052;-63
2024/02/02 12:14:06;;;;;;;2.75;0.82;;;11.70;99.90;;;;;;5033402;28;20063;-62
2024/02/02 12:16:32;;;;;;;2.28;0.82;;;11.70;99.90;;;;;;5033907;28;20112;-61
2024/02/02 12:18:59;;;;;;;2.70;0.80;;;11.70;99.90;;;;;;5033584;28;20121;-63
2024/02/02 12:21:26;;;;;;;2.95;0.90;;;11.70;99.90;;;;;;5032897;28;20152;-63
2024/02/02 12:23:53;;;;;;;2.20;1.00;;;11.70;99.90;;;;;;5033345;28;20049;-63
2024/02/02 12:26:22;;;;;;;2.28;0.85;;;11.70;99.90;;;;;;5032883;28;20052;-69
2024/02/02 12:28:49;;;;;;;2.20;1.00;;;11.70;99.90;;;;;;5033264;28;20041;-68
2024/02/02 12:31:16;;;;;;;2.65;1.20;;;11.80;99.90;;;;;;5032789;28;20044;-63
2024/02/02 12:33:42;;;;;;;2.28;1.20;;;11.80;99.90;;;;;;5031464;28;20392;-66
2024/02/02 12:36:10;;;;;;;1.95;1.00;;;11.90;99.90;;;;;;5033386;28;20124;-63
2024/02/02 12:38:38;;;;;;;4.53;1.00;;;12.00;99.90;;;;;;5033245;28;20037;-62
2024/02/02 12:41:08;;;;;;;1.73;0.98;;;12.10;99.90;;;;;;5032585;28;20033;-62
2024/02/02 12:43:35;;;;;;;2.08;1.00;;;12.20;99.90;;;;;;5012494;28;20042;-62
2024/02/02 12:46:02;;;;;;;1.92;0.90;;;12.30;99.90;;;;;;5013367;28;20038;-62
2024/02/02 12:48:29;;;;;;;3.53;1.13;;;12.30;99.90;;;;;;5013312;28;20117;-62
2024/02/02 12:50:56;;;;;;;3.25;1.20;;;12.40;99.90;;;;;;5028800;28;20038;-62